Time;durP1;ratioP1;P1;durP2;ratioP2;P2;SDS_P1;SDS_P2;PMS_P1;PMS_P2;Temp;Humidity;BMP_temperature;BMP_pressure;BME280_temperature;BME280_humidity;BME280_pressure;Samples;Min_cycle;Max_cycle;Signal;HPM_P1;HPM_P2
2022/10/04 00:01:47;;;;;;;30.07;28.23;;;;;;;10.97;100.00;102163.84;5091788;28;20800;-49
2022/10/04 00:04:21;;;;;;;29.43;27.10;;;;;;;10.98;100.00;102169.06;5093232;28;20453;-48
2022/10/04 00:06:55;;;;;;;28.77;26.90;;;;;;;11.00;100.00;102172.38;5093367;28;20889;-49
2022/10/04 00:09:25;;;;;;;28.03;26.10;;;;;;;11.00;100.00;102175.03;5093240;28;20915;-52
2022/10/04 00:11:55;;;;;;;29.97;27.10;;;;;;;11.01;100.00;102167.88;5093075;28;20502;-46
2022/10/04 00:14:29;;;;;;;32.33;27.27;;;;;;;11.01;100.00;102157.19;5092795;28;20425;-49
2022/10/04 00:16:59;;;;;;;27.20;25.20;;;;;;;11.01;100.00;102165.22;5093471;28;20477;-47
2022/10/04 00:19:41;;;;;;;25.80;24.00;;;;;;;11.02;100.00;102159.69;5092916;28;20989;-47
2022/10/04 00:22:12;;;;;;;27.53;24.63;;;;;;;11.01;100.00;102158.03;5092817;28;20448;-48
2022/10/04 00:25:21;;;;;;;28.90;25.87;;;;;;;11.00;100.00;102156.38;5092471;28;22057;-50
2022/10/04 00:28:16;;;;;;;35.73;26.83;;;;;;;10.99;100.00;102160.03;5093200;28;20433;-51
2022/10/04 00:30:44;;;;;;;30.67;27.80;;;;;;;11.00;100.00;102160.84;5092733;28;20566;-49
2022/10/04 00:33:35;;;;;;;29.57;26.60;;;;;;;11.00;100.00;102160.84;5092732;28;20515;-50
2022/10/04 00:36:44;;;;;;;29.30;27.10;;;;;;;11.02;100.00;102162.34;5092355;28;20998;-53
2022/10/04 00:39:23;;;;;;;34.93;29.10;;;;;;;11.04;100.00;102151.53;5092831;28;20429;-53
2022/10/04 00:42:01;;;;;;;30.60;27.60;;;;;;;11.07;100.00;102144.03;5092559;28;20475;-51
2022/10/04 00:44:37;;;;;;;40.80;28.60;;;;;;;11.10;100.00;102142.88;5092370;28;20459;-51
2022/10/04 00:47:19;;;;;;;31.27;26.60;;;;;;;11.13;100.00;102139.84;5092799;28;20490;-52
2022/10/04 00:49:48;;;;;;;30.17;27.17;;;;;;;11.15;100.00;102129.00;5092727;28;20774;-51
2022/10/04 00:52:23;;;;;;;63.60;31.43;;;;;;;11.17;100.00;102125.16;5092171;28;20451;-53
2022/10/04 00:54:55;;;;;;;71.23;32.30;;;;;;;11.21;100.00;102131.00;5091103;28;20460;-49
2022/10/04 00:57:28;;;;;;;183.90;42.43;;;;;;;11.23;100.00;102123.69;5091117;28;20877;-52
2022/10/04 01:00:00;;;;;;;41.90;28.10;;;;;;;11.24;100.00;102117.31;5089522;28;20849;-54
2022/10/04 01:02:35;;;;;;;29.83;27.00;;;;;;;11.27;100.00;102112.47;5091162;28;20511;-53
2022/10/04 01:05:08;;;;;;;42.10;30.33;;;;;;;11.29;100.00;102102.47;5090876;28;20874;-51
2022/10/04 01:07:41;;;;;;;112.93;36.70;;;;;;;11.31;100.00;102104.97;5092291;28;20422;-54
2022/10/04 01:10:14;;;;;;;30.70;27.67;;;;;;;11.34;100.00;102118.00;5092431;28;20830;-52
2022/10/04 01:12:49;;;;;;;27.17;25.37;;;;;;;11.36;100.00;102119.50;5092009;28;20445;-53
2022/10/04 01:15:26;;;;;;;97.50;33.53;;;;;;;11.36;100.00;102119.50;5091553;28;20461;-51
2022/10/04 01:18:07;;;;;;;65.63;32.20;;;;;;;11.37;100.00;102110.47;5091956;28;20465;-49
2022/10/04 01:20:39;;;;;;;42.00;28.23;;;;;;;11.37;100.00;102110.47;5091928;28;20838;-54
2022/10/04 01:23:10;;;;;;;25.80;24.40;;;;;;;11.39;100.00;102118.31;5091842;28;20494;-49
2022/10/04 01:25:43;;;;;;;28.47;26.57;;;;;;;11.41;100.00;102106.44;5091467;28;20985;-53
2022/10/04 01:28:11;;;;;;;30.27;27.27;;;;;;;11.41;100.00;102111.00;5092200;28;20490;-52
2022/10/04 01:30:39;;;;;;;28.20;26.70;;;;;;;11.41;100.00;102111.78;5092031;28;20463;-54
2022/10/04 01:33:06;;;;;;;28.10;26.50;;;;;;;11.41;100.00;102111.78;5091552;28;20457;-50
2022/10/04 01:35:35;;;;;;;29.97;27.67;;;;;;;11.41;100.00;102106.44;5091410;28;20525;-52
2022/10/04 01:38:05;;;;;;;30.13;27.33;;;;;;;11.42;100.00;102108.13;5091809;28;20526;-48
2022/10/04 01:40:36;;;;;;;28.43;26.30;;;;;;;11.42;100.00;102108.13;5091729;28;20469;-49
2022/10/04 01:43:09;;;;;;;28.40;26.60;;;;;;;11.42;100.00;102107.28;5091807;28;20442;-49
2022/10/04 01:45:40;;;;;;;31.27;27.87;;;;;;;11.42;100.00;102104.63;5091461;28;20526;-47
2022/10/04 01:48:12;;;;;;;32.03;28.70;;;;;;;11.42;100.00;102104.63;5091842;28;20765;-50
2022/10/04 01:50:46;;;;;;;62.03;30.93;;;;;;;11.39;100.00;102092.44;5091588;28;20958;-50
2022/10/04 01:53:19;;;;;;;30.70;28.00;;;;;;;11.40;100.00;102099.47;5092109;28;20449;-52
2022/10/04 01:55:51;;;;;;;31.07;28.13;;;;;;;11.41;100.00;102093.09;5087976;28;20936;-50
2022/10/04 01:58:25;;;;;;;28.30;26.23;;;;;;;11.41;100.00;102082.41;5090350;28;20542;-53
2022/10/04 02:00:59;;;;;;;26.13;24.73;;;;;;;11.43;100.00;102080.44;5083537;28;20429;-48
2022/10/04 02:03:32;;;;;;;57.33;30.70;;;;;;;11.40;100.00;102075.44;5082176;28;20441;-50
2022/10/04 02:06:04;;;;;;;30.70;28.17;;;;;;;11.40;100.00;102075.44;5088702;28;20461;-51
2022/10/04 02:08:35;;;;;;;31.30;28.40;;;;;;;11.39;100.00;102075.56;5089150;28;20490;-48
2022/10/04 02:11:05;;;;;;;27.93;25.80;;;;;;;11.38;100.00;102074.75;5089930;28;20950;-48
2022/10/04 02:13:37;;;;;;;27.93;26.33;;;;;;;11.37;100.00;102065.09;5093989;28;20481;-46
2022/10/04 02:16:09;;;;;;;29.77;27.80;;;;;;;11.37;100.00;102061.56;5093654;28;21079;-50
2022/10/04 02:18:39;;;;;;;28.37;26.83;;;;;;;11.36;100.00;102052.72;5093876;28;20957;-50
2022/10/04 02:21:07;;;;;;;30.43;28.63;;;;;;;11.36;100.00;102058.06;5090314;28;20800;-49
2022/10/04 02:23:36;;;;;;;31.60;29.63;;;;;;;11.35;100.00;102040.34;5093134;28;20514;-51
2022/10/04 02:26:06;;;;;;;33.90;30.53;;;;;;;11.34;100.00;102044.06;5091372;28;20465;-50
2022/10/04 02:28:35;;;;;;;30.43;28.40;;;;;;;11.32;100.00;102046.03;5094071;28;20841;-49
2022/10/04 02:33:52;;;;;;;30.83;28.93;;;;;;;11.30;100.00;102044.53;5074877;28;20521;-48
2022/10/04 02:36:25;;;;;;;30.10;28.47;;;;;;;11.27;100.00;102048.41;5074439;28;20533;-49
2022/10/04 02:38:59;;;;;;;31.30;29.50;;;;;;;11.26;100.00;102040.56;5075026;28;20426;-49
2022/10/04 02:41:33;;;;;;;31.17;29.10;;;;;;;11.24;100.00;102043.38;5074476;28;20430;-51
2022/10/04 02:44:04;;;;;;;30.87;29.17;;;;;;;11.24;100.00;102035.38;5074758;28;20427;-53
2022/10/04 02:46:36;;;;;;;30.90;29.23;;;;;;;11.24;100.00;102034.53;5074196;28;20503;-51
2022/10/04 02:49:10;;;;;;;30.27;28.63;;;;;;;11.23;100.00;102035.56;5074582;28;20427;-50
2022/10/04 02:51:44;;;;;;;30.90;29.20;;;;;;;11.21;100.00;102033.03;5074649;28;20434;-53
2022/10/04 02:54:26;;;;;;;33.13;31.30;;;;;;;11.21;100.00;102021.53;5080079;28;20430;-48
2022/10/04 02:56:56;;;;;;;33.33;31.00;;;;;;;11.19;100.00;102026.22;5093005;28;20437;-48
2022/10/04 02:59:24;;;;;;;32.07;30.33;;;;;;;11.18;100.00;102016.53;5093068;28;20499;-47
2022/10/04 03:01:54;;;;;;;33.00;31.00;;;;;;;11.17;100.00;102010.34;5093283;28;20502;-48
2022/10/04 03:04:25;;;;;;;30.70;28.90;;;;;;;11.18;100.00;102016.53;5094132;28;20461;-50
2022/10/04 03:06:54;;;;;;;31.50;29.60;;;;;;;11.18;100.00;102012.03;5094774;28;20838;-49
2022/10/04 03:09:24;;;;;;;32.00;29.90;;;;;;;11.16;100.00;102010.53;5094463;28;20919;-52
2022/10/04 03:11:58;;;;;;;31.10;29.57;;;;;;;11.15;100.00;101996.34;5094165;28;20450;-49
2022/10/04 03:14:27;;;;;;;31.67;30.03;;;;;;;11.17;100.00;102006.88;5093959;28;20491;-48
2022/10/04 03:16:59;;;;;;;33.47;31.23;;;;;;;11.17;100.00;102017.56;5094439;28;20433;-47
2022/10/04 03:19:30;;;;;;;33.00;30.70;;;;;;;11.16;100.00;102008.69;5094152;28;20455;-51
2022/10/04 03:22:02;;;;;;;34.47;32.27;;;;;;;11.16;100.00;102010.53;5094006;28;20869;-53
2022/10/04 03:24:32;;;;;;;34.43;32.47;;;;;;;11.17;100.00;102017.56;5092905;28;20487;-53
2022/10/04 03:27:04;;;;;;;33.93;31.83;;;;;;;11.17;100.00;102021.03;5094292;28;20780;-54
2022/10/04 03:29:34;;;;;;;33.40;31.20;;;;;;;11.19;100.00;102016.38;5094111;28;20876;-53
2022/10/04 03:32:04;;;;;;;33.90;31.70;;;;;;;11.22;100.00;102016.03;5093605;28;20520;-54
2022/10/04 03:34:36;;;;;;;35.80;33.57;;;;;;;11.25;100.00;102018.38;5093645;28;20989;-50
2022/10/04 03:37:08;;;;;;;35.13;32.80;;;;;;;11.28;100.00;102020.69;5093799;28;20475;-50
2022/10/04 03:39:40;;;;;;;35.23;32.33;;;;;;;11.32;100.00;102026.53;5093945;28;20479;-49
2022/10/04 03:42:13;;;;;;;33.43;31.13;;;;;;;11.36;100.00;102019.84;5093716;28;20445;-53
2022/10/04 03:44:42;;;;;;;35.23;32.70;;;;;;;11.38;100.00;102009.84;5093462;28;20457;-52
2022/10/04 03:47:12;;;;;;;35.80;33.57;;;;;;;11.42;100.00;102000.44;5093798;28;20430;-49
2022/10/04 03:49:41;;;;;;;37.73;34.17;;;;;;;11.43;100.00;101988.78;5093856;28;20418;-48
2022/10/04 03:52:20;;;;;;;38.70;35.90;;;;;;;11.42;100.00;101985.25;5093469;28;20449;-52
2022/10/04 03:54:49;;;;;;;40.13;36.70;;;;;;;11.43;100.00;101978.09;5093070;28;20994;-50
2022/10/04 03:57:19;;;;;;;38.87;35.40;;;;;;;11.43;100.00;101980.75;5093447;28;20444;-51
2022/10/04 03:59:47;;;;;;;37.03;34.03;;;;;;;11.42;100.00;101992.44;5093379;28;20491;-52
2022/10/04 04:02:22;;;;;;;35.33;33.03;;;;;;;11.42;100.00;102001.28;5093113;28;20453;-51
2022/10/04 04:04:58;;;;;;;38.97;35.50;;;;;;;11.44;100.00;102006.47;5093159;28;20460;-51
2022/10/04 04:07:32;;;;;;;37.70;34.47;;;;;;;11.45;100.00;102010.78;5093915;28;20474;-51
2022/10/04 04:10:05;;;;;;;39.30;35.87;;;;;;;11.45;100.00;102000.94;5093565;28;20502;-54
2022/10/04 04:12:42;;;;;;;36.73;33.73;;;;;;;11.46;100.00;102001.78;5092886;28;20449;-54
2022/10/04 04:15:12;;;;;;;35.73;33.47;;;;;;;11.45;100.00;101989.44;5092829;28;20460;-54
2022/10/04 04:17:41;;;;;;;36.50;33.93;;;;;;;11.44;100.00;101993.13;5093375;28;20430;-54
2022/10/04 04:20:23;;;;;;;36.03;33.67;;;;;;;11.43;100.00;101999.47;5092902;28;21011;-54
2022/10/04 04:23:04;;;;;;;38.60;35.60;;;;;;;11.41;100.00;101996.94;5085025;28;20536;-53
2022/10/04 04:25:34;;;;;;;37.00;34.40;;;;;;;11.41;100.00;101994.28;5092787;28;20456;-52
2022/10/04 04:28:23;;;;;;;37.70;34.77;;;;;;;11.39;100.00;101992.78;5093127;28;20996;-51
2022/10/04 04:30:54;;;;;;;36.77;34.00;;;;;;;11.39;100.00;101987.44;5092750;28;20434;-53
2022/10/04 04:33:29;;;;;;;35.67;33.37;;;;;;;11.38;100.00;101985.78;5093042;28;20510;-54
2022/10/04 04:36:04;;;;;;;37.63;35.17;;;;;;;11.37;100.00;101982.28;5092457;28;20460;-54
2022/10/04 04:38:34;;;;;;;37.20;34.10;;;;;;;11.40;100.00;101991.78;5092898;28;20473;-54
2022/10/04 04:41:09;;;;;;;35.90;33.70;;;;;;;11.42;100.00;101989.78;5092587;28;20438;-54
2022/10/04 04:43:43;;;;;;;36.70;34.40;;;;;;;11.43;100.00;101980.75;5092518;28;20455;-54
2022/10/04 04:46:11;;;;;;;37.20;34.70;;;;;;;11.45;100.00;101974.22;5092435;28;20983;-54
2022/10/04 04:49:01;;;;;;;38.80;35.83;;;;;;;11.46;100.00;101975.06;5092907;28;20433;-54
2022/10/04 04:51:31;;;;;;;38.33;35.60;;;;;;;11.48;100.00;101973.91;5092280;28;20841;-52
2022/10/04 04:54:02;;;;;;;37.13;34.83;;;;;;;11.51;100.00;101978.06;5092433;28;20458;-54
2022/10/04 04:56:31;;;;;;;39.23;36.43;;;;;;;11.51;100.00;101975.38;5092135;28;20465;-54
2022/10/04 04:59:04;;;;;;;45.00;39.80;;;;;;;11.51;100.00;101978.88;5092443;28;20473;-53
2022/10/04 05:01:35;;;;;;;42.50;38.70;;;;;;;11.54;100.00;101975.03;5092275;28;20486;-54
2022/10/04 05:04:04;;;;;;;39.37;36.50;;;;;;;11.56;100.00;101971.19;5092416;28;20437;-54
2022/10/04 05:06:34;;;;;;;40.73;37.67;;;;;;;11.58;100.00;101979.88;5091805;28;20990;-52
2022/10/04 05:09:02;;;;;;;36.87;34.30;;;;;;;11.58;100.00;101963.84;5092209;28;20429;-53
2022/10/04 05:11:32;;;;;;;35.90;33.40;;;;;;;11.58;100.00;101963.84;5092101;28;20847;-53
2022/10/04 05:14:06;;;;;;;41.57;37.80;;;;;;;11.58;100.00;101963.00;5092253;28;20429;-54
2022/10/04 05:16:40;;;;;;;38.57;35.47;;;;;;;11.57;100.00;101956.00;5091519;28;20454;-54
2022/10/04 05:19:14;;;;;;;39.50;35.67;;;;;;;11.56;100.00;101944.47;5091965;28;20469;-53
2022/10/04 05:21:45;;;;;;;42.23;38.83;;;;;;;11.56;100.00;101941.78;5091651;28;20939;-53
2022/10/04 05:24:19;;;;;;;39.50;35.83;;;;;;;11.57;100.00;101939.97;5092312;28;20505;-54
2022/10/04 05:26:50;;;;;;;36.77;33.80;;;;;;;11.58;100.00;101936.28;5091471;28;20457;-54
2022/10/04 05:29:22;;;;;;;28.30;27.20;;;;;;;11.57;100.00;101938.13;5091934;28;20429;-54
2022/10/04 05:31:58;;;;;;;28.33;27.43;;;;;;;11.58;100.00;101938.97;5091713;28;20530;-48
2022/10/04 05:34:28;;;;;;;28.20;27.30;;;;;;;11.57;100.00;101939.97;5091599;28;20445;-52
2022/10/04 05:37:12;;;;;;;27.80;26.90;;;;;;;11.57;100.00;101945.31;5092005;28;20529;-52
2022/10/04 05:39:47;;;;;;;27.37;26.47;;;;;;;11.57;100.00;101940.78;5091721;28;20473;-53
2022/10/04 05:42:22;;;;;;;27.60;26.70;;;;;;;11.57;100.00;101940.78;5091760;28;20502;-54
2022/10/04 05:44:53;;;;;;;27.37;26.47;;;;;;;11.58;100.00;101944.31;5091416;28;20457;-54
2022/10/04 05:47:25;;;;;;;26.90;26.10;;;;;;;11.60;100.00;101947.63;5091407;28;20482;-52
2022/10/04 05:49:56;;;;;;;27.80;26.90;;;;;;;11.60;100.00;101945.78;5091721;28;20834;-54
2022/10/04 05:52:30;;;;;;;27.63;26.77;;;;;;;11.63;100.00;101948.13;5091252;28;20958;-53
2022/10/04 05:55:28;;;;;;;28.83;27.93;;;;;;;11.66;100.00;101945.09;5091418;28;20453;-52
2022/10/04 05:58:31;;;;;;;27.60;26.70;;;;;;;11.68;100.00;101946.78;5029131;28;20428;-54
2022/10/04 06:01:15;;;;;;;26.97;26.07;;;;;;;11.72;100.00;101950.78;5091144;28;20444;-53
2022/10/04 06:03:57;;;;;;;27.80;26.90;;;;;;;11.72;100.00;101954.28;5091621;28;20449;-54
2022/10/04 06:06:33;;;;;;;26.90;26.00;;;;;;;11.77;100.00;101959.94;5091121;28;20484;-52
2022/10/04 06:09:10;;;;;;;26.67;25.87;;;;;;;11.80;100.00;101962.25;5091412;28;20425;-54
2022/10/04 06:11:48;;;;;;;26.77;25.93;;;;;;;11.83;100.00;101956.56;5091307;28;20530;-53
2022/10/04 06:14:45;;;;;;;27.47;26.57;;;;;;;11.88;100.00;101956.03;5091471;28;20972;-53
2022/10/04 06:17:48;;;;;;;26.13;25.33;;;;;;;11.93;100.00;101949.16;5089765;28;20897;-49
2022/10/04 06:20:47;;;;;;;26.20;25.40;;;;;;;11.95;100.00;101959.66;5091174;28;20468;-50
2022/10/04 06:23:17;;;;;;;26.40;25.60;;;;;;;12.00;100.00;101957.31;5086940;28;20442;-50
2022/10/04 06:25:49;;;;;;;26.73;25.87;;;;;;;12.03;100.00;101949.78;5090730;28;20472;-53
2022/10/04 06:28:21;;;;;;;27.30;26.40;;;;;;;12.07;100.00;101948.41;5091476;28;20774;-48
2022/10/04 06:31:12;;;;;;;28.07;27.17;;;;;;;12.12;100.00;101953.22;5091443;28;20495;-50
2022/10/04 06:34:04;;;;;;;26.10;25.20;;;;;;;12.17;100.00;101953.53;5089196;28;20515;-48
2022/10/04 06:36:58;;;;;;;27.20;26.30;;;;;;;12.20;100.00;101943.31;5090633;28;20465;-49
2022/10/04 06:39:46;;;;;;;27.20;26.30;;;;;;;12.25;100.00;101949.94;5091059;28;20469;-49
2022/10/04 06:42:42;;;;;;;27.13;26.23;;;;;;;12.27;100.00;101948.78;5088598;28;20979;-48
2022/10/04 06:45:40;;;;;;;26.60;25.70;;;;;;;12.34;100.00;101948.88;5090656;28;20514;-47
2022/10/04 06:48:23;;;;;;;26.63;25.73;;;;;;;12.36;100.00;101953.06;5078955;28;20433;-48
2022/10/04 06:51:00;;;;;;;25.97;25.17;;;;;;;12.42;100.00;101949.66;5090811;28;20486;-50
2022/10/04 06:53:40;;;;;;;25.20;24.40;;;;;;;12.46;100.00;101961.66;5091177;28;20851;-48
2022/10/04 06:56:29;;;;;;;26.43;25.53;;;;;;;12.49;100.00;101965.81;5090645;28;20827;-47
2022/10/04 06:59:24;;;;;;;25.53;24.73;;;;;;;12.55;100.00;101960.59;5092314;28;20841;-49
2022/10/04 07:01:56;;;;;;;25.37;24.47;;;;;;;12.60;100.00;101966.22;5081993;28;20897;-49
2022/10/04 07:04:35;;;;;;;24.90;24.10;;;;;;;12.65;100.00;101973.72;5094374;28;20430;-48
2022/10/04 07:07:35;;;;;;;24.47;23.67;;;;;;;12.72;100.00;101966.66;5094665;28;20524;-45
2022/10/04 07:10:28;;;;;;;24.30;23.40;;;;;;;12.75;100.00;101967.09;5094468;28;20434;-46
2022/10/04 07:13:09;;;;;;;24.10;23.20;;;;;;;12.76;100.00;101967.94;5094628;28;20495;-46
2022/10/04 07:15:46;;;;;;;24.00;23.10;;;;;;;12.78;100.00;101966.72;5093950;28;20519;-46
2022/10/04 07:18:21;;;;;;;24.13;23.23;;;;;;;12.81;100.00;101970.06;5094421;28;20449;-46
2022/10/04 07:20:58;;;;;;;24.00;23.10;;;;;;;12.86;100.00;101965.00;5093823;28;20518;-46
2022/10/04 07:23:32;;;;;;;22.70;21.90;;;;;;;12.89;100.00;101970.00;5094271;28;20496;-46
2022/10/04 07:26:04;;;;;;;23.43;22.53;;;;;;;12.93;100.00;101974.78;5093818;28;20458;-46
2022/10/04 07:31:26;;;;;;;23.47;22.57;;;;;;;13.00;100.00;101967.69;5086749;28;20517;-48
2022/10/04 07:33:58;;;;;;;24.10;23.10;;;;;;;13.01;100.00;101968.53;5094158;28;20494;-46
2022/10/04 07:36:30;;;;;;;23.57;22.67;;;;;;;13.05;100.00;101965.28;5093556;28;21059;-47
2022/10/04 07:39:06;;;;;;;23.70;22.80;;;;;;;13.10;100.00;101972.84;5094240;28;20426;-47
2022/10/04 07:41:37;;;;;;;23.97;23.07;;;;;;;13.14;100.00;101958.88;5093751;28;20834;-47
2022/10/04 07:44:15;;;;;;;24.77;23.77;;;;;;;13.19;100.00;101959.19;5093967;28;20779;-52
2022/10/04 07:46:51;;;;;;;24.67;23.77;;;;;;;13.27;100.00;101963.59;5093540;28;20465;-46
2022/10/04 07:49:21;;;;;;;24.50;23.60;;;;;;;13.30;100.00;101963.22;5093727;28;20425;-48
2022/10/04 07:52:05;;;;;;;24.60;23.60;;;;;;;13.38;100.00;101963.13;5093920;28;20473;-45
2022/10/04 07:54:40;;;;;;;25.63;24.67;;;;;;;13.35;100.00;101963.50;5093157;28;20475;-47
2022/10/04 07:57:14;;;;;;;25.83;24.83;;;;;;;13.42;100.00;101966.28;5093731;28;20441;-46
2022/10/04 07:59:52;;;;;;;25.30;24.30;;;;;;;13.45;100.00;101964.06;5093764;28;20449;-48
2022/10/04 08:02:31;;;;;;;25.83;24.77;;;;;;;13.52;100.00;101962.31;5093271;28;20970;-49
2022/10/04 08:05:12;;;;;;;25.80;24.80;;;;;;;13.63;100.00;101966.34;5093164;28;20552;-51
2022/10/04 08:07:56;;;;;;;26.60;25.50;;;;;;;13.67;100.00;101957.75;5093503;28;21067;-48
2022/10/04 08:10:32;;;;;;;25.80;24.80;;;;;;;13.73;100.00;101961.53;5093338;28;20437;-47
2022/10/04 08:13:12;;;;;;;26.90;25.70;;;;;;;13.77;100.00;101960.97;5093286;28;20445;-46
2022/10/04 08:15:42;;;;;;;27.70;26.30;;;;;;;13.83;100.00;101970.09;5092933;28;20885;-53
2022/10/04 08:18:33;;;;;;;26.80;25.70;;;;;;;13.90;100.00;101970.19;5093229;28;20966;-48
2022/10/04 08:21:05;;;;;;;27.00;25.80;;;;;;;14.00;100.00;101952.78;5092824;28;20868;-50
2022/10/04 08:23:57;;;;;;;27.70;26.50;;;;;;;14.09;100.00;101959.69;5093003;28;20444;-51
2022/10/04 08:26:40;;;;;;;27.53;26.30;;;;;;;14.12;100.00;101963.84;5092624;28;20507;-50
2022/10/04 08:29:44;;;;;;;27.50;26.37;;;;;;;14.21;100.00;101966.22;5092903;28;20476;-54
2022/10/04 08:32:27;;;;;;;34.33;32.13;;;;;;;14.29;100.00;101962.56;5092728;28;20461;-48
2022/10/04 08:35:08;;;;;;;36.20;33.07;;;;;;;14.35;100.00;101964.53;5092367;28;20465;-46
2022/10/04 08:37:52;;;;;;;36.90;34.37;;;;;;;14.39;100.00;101955.88;5092964;28;20455;-50
2022/10/04 08:40:45;;;;;;;37.37;34.30;;;;;;;14.49;100.00;101963.63;5092738;28;20526;-47
2022/10/04 08:43:41;;;;;;;37.30;34.43;;;;;;;14.54;100.00;101974.63;5092399;28;20483;-46
2022/10/04 08:46:43;;;;;;;34.83;32.43;;;;;;;14.64;100.00;101964.38;5092159;28;20472;-49
2022/10/04 08:49:36;;;;;;;34.97;32.57;;;;;;;14.70;100.00;101966.28;5092543;28;20483;-45
2022/10/04 08:52:35;;;;;;;36.37;33.47;;;;;;;14.82;100.00;101961.22;5092140;28;20441;-46
2022/10/04 08:55:42;;;;;;;35.87;33.53;;;;;;;14.80;100.00;101963.28;5092031;28;21047;-50
2022/10/04 08:58:16;;;;;;;37.00;34.37;;;;;;;14.84;100.00;101954.63;5029858;28;20455;-50
2022/10/04 09:01:16;;;;;;;36.87;34.53;;;;;;;14.98;100.00;101952.88;5029709;28;20475;-46
2022/10/04 09:04:13;;;;;;;37.57;34.70;;;;;;;14.99;100.00;101946.50;5047960;28;20488;-50
2022/10/04 09:06:54;;;;;;;36.30;33.93;;;;;;;15.05;100.00;101945.72;5091763;28;20461;-48
2022/10/04 09:09:57;;;;;;;35.73;33.27;;;;;;;15.05;100.00;101951.09;5092410;28;20425;-49
2022/10/04 09:12:50;;;;;;;35.33;33.13;;;;;;;15.12;100.00;101949.25;5092050;28;20506;-47
2022/10/04 09:15:30;;;;;;;36.60;34.00;;;;;;;15.31;100.00;101943.16;5092071;28;20472;-52
2022/10/04 09:18:08;;;;;;;36.00;33.47;;;;;;;15.63;100.00;101941.69;5091828;28;20440;-48
2022/10/04 09:20:54;;;;;;;37.10;34.17;;;;;;;15.81;100.00;101941.97;5091570;28;20538;-47
2022/10/04 09:23:49;;;;;;;34.60;32.27;;;;;;;16.24;100.00;101937.13;5091677;28;20494;-49
2022/10/04 09:26:24;;;;;;;36.00;33.60;;;;;;;16.62;100.00;101932.00;5089479;28;20495;-47
2022/10/04 09:29:15;;;;;;;37.77;35.27;;;;;;;16.85;100.00;101937.78;5091892;28;20432;-47
2022/10/04 09:32:34;;;;;;;39.13;36.50;;;;;;;17.06;100.00;101942.09;5091676;28;20951;-52
2022/10/04 09:35:19;;;;;;;37.00;34.13;;;;;;;17.27;100.00;101931.06;5091479;28;20473;-48
2022/10/04 09:38:14;;;;;;;34.97;32.60;;;;;;;17.41;100.00;101915.69;5091847;28;20425;-50
2022/10/04 09:41:02;;;;;;;36.80;33.97;;;;;;;17.35;100.00;101906.56;5090640;28;20503;-49
2022/10/04 09:44:03;;;;;;;36.53;33.80;;;;;;;17.28;97.43;101903.06;5091746;28;20456;-49
2022/10/04 09:46:50;;;;;;;33.93;31.97;;;;;;;17.42;99.49;101903.84;5087024;28;20522;-47
2022/10/04 09:49:45;;;;;;;34.50;32.40;;;;;;;17.54;100.00;101896.75;5091826;28;20445;-48
2022/10/04 09:52:29;;;;;;;34.73;32.60;;;;;;;17.50;98.69;101890.16;5091650;28;20445;-48
2022/10/04 09:55:15;;;;;;;34.67;32.50;;;;;;;17.46;96.40;101900.53;5091451;28;20581;-46
2022/10/04 09:58:00;;;;;;;34.63;32.53;;;;;;;17.49;96.63;101900.09;5091546;28;20429;-44
2022/10/04 10:00:35;;;;;;;35.83;33.40;;;;;;;17.51;95.97;101902.56;5091617;28;20447;-46
2022/10/04 10:03:25;;;;;;;35.60;33.00;;;;;;;17.62;96.65;101910.84;5091538;28;20474;-50
2022/10/04 10:06:14;;;;;;;34.80;32.20;;;;;;;17.69;95.96;101905.41;5091044;28;20465;-50
2022/10/04 10:08:55;;;;;;;34.77;32.57;;;;;;;17.86;96.09;101908.47;5091255;28;20487;-46
2022/10/04 10:15:04;;;;;;;34.67;32.10;;;;;;;17.78;92.81;101909.53;5091613;28;20441;-51
2022/10/04 10:17:40;;;;;;;35.87;33.10;;;;;;;17.91;92.62;101898.66;5091661;28;20821;-53
2022/10/04 10:20:43;;;;;;;33.47;31.47;;;;;;;17.89;90.91;101899.94;5091471;28;20440;-51
2022/10/04 10:23:38;;;;;;;35.53;33.33;;;;;;;17.85;91.76;101914.91;5057415;28;20449;-54
2022/10/04 10:26:30;;;;;;;33.30;31.00;;;;;;;17.99;92.63;101903.81;5091087;28;20862;-48
2022/10/04 10:29:22;;;;;;;32.13;30.23;;;;;;;18.06;89.89;101901.91;5091562;28;20845;-47
2022/10/04 10:32:10;;;;;;;33.67;31.07;;;;;;;18.13;88.16;101896.44;5091174;28;20514;-50
2022/10/04 10:35:02;;;;;;;33.73;30.90;;;;;;;18.25;87.55;101890.13;5095078;28;20482;-47
2022/10/04 10:37:45;;;;;;;32.53;30.40;;;;;;;18.37;85.22;101884.03;5095331;28;20462;-50
2022/10/04 10:40:31;;;;;;;31.37;29.17;;;;;;;18.48;85.41;101894.94;5095145;28;21030;-52
2022/10/04 10:43:31;;;;;;;32.13;29.63;;;;;;;18.54;84.08;101893.25;5094893;28;20469;-47
2022/10/04 10:46:25;;;;;;;31.30;28.93;;;;;;;18.76;84.16;101892.63;5094771;28;20460;-45
2022/10/04 10:49:32;;;;;;;31.07;28.40;;;;;;;18.82;82.49;101890.91;5095162;28;20421;-48
2022/10/04 10:52:36;;;;;;;29.47;27.47;;;;;;;18.89;83.49;101888.97;5094744;28;20863;-45
2022/10/04 10:55:29;;;;;;;30.10;27.73;;;;;;;18.87;80.58;101884.84;5094222;28;20501;-49
2022/10/04 10:58:24;;;;;;;30.10;27.07;;;;;;;18.87;81.47;101885.66;5092702;28;20498;-47
2022/10/04 11:01:09;;;;;;;26.37;24.70;;;;;;;18.90;78.77;101871.72;5094395;28;21199;-49
2022/10/04 11:04:04;;;;;;;26.67;24.57;;;;;;;18.88;79.51;101890.00;5094751;28;20506;-50
2022/10/04 11:07:12;;;;;;;27.30;25.57;;;;;;;18.86;80.53;101886.72;5094108;28;20517;-52
2022/10/04 11:10:03;;;;;;;23.67;21.73;;;;;;;19.02;80.78;101886.13;5088830;28;20451;-53
2022/10/04 11:12:57;;;;;;;21.73;20.20;;;;;;;19.19;80.03;101886.34;5094395;28;20506;-53
2022/10/04 11:15:43;;;;;;;21.53;19.90;;;;;;;19.23;75.35;101882.16;5093804;28;20461;-47
2022/10/04 11:18:39;;;;;;;19.40;17.80;;;;;;;19.28;73.85;101879.59;5094380;28;20429;-51
2022/10/04 11:21:53;;;;;;;17.63;16.20;;;;;;;19.18;73.97;101863.88;5093776;28;20503;-51
2022/10/04 11:25:19;;;;;;;17.57;15.87;;;;;;;19.05;73.92;101879.44;5037786;28;20430;-52
2022/10/04 11:28:01;;;;;;;17.67;16.03;;;;;;;18.98;76.29;101871.41;5073846;28;20430;-53
2022/10/04 11:30:51;;;;;;;17.47;15.97;;;;;;;18.66;74.06;101878.81;5074115;28;20544;-53
2022/10/04 11:33:56;;;;;;;16.70;14.87;;;;;;;18.59;73.99;101869.09;5073987;28;20457;-47
2022/10/04 11:36:56;;;;;;;14.93;13.87;;;;;;;18.52;74.95;101862.91;5073230;28;20470;-47
2022/10/04 11:39:48;;;;;;;18.03;13.70;;;;;;;18.41;74.63;101856.34;5073991;28;20488;-52
2022/10/04 11:42:28;;;;;;;13.80;12.80;;;;;;;18.52;74.28;101857.50;5073342;28;20469;-51
2022/10/04 11:45:32;;;;;;;13.70;12.90;;;;;;;18.53;76.45;101843.81;5072888;28;20457;-52
2022/10/04 11:48:10;;;;;;;12.70;11.70;;;;;;;18.42;73.62;101846.38;5073692;28;20444;-51
2022/10/04 11:50:59;;;;;;;13.60;12.40;;;;;;;18.16;74.52;101836.59;5073522;28;20437;-52
2022/10/04 11:53:51;;;;;;;13.63;11.70;;;;;;;17.98;75.29;101831.97;5073900;28;21008;-52
2022/10/04 11:56:34;;;;;;;12.30;11.43;;;;;;;17.57;76.12;101839.72;5073174;28;20934;-54
2022/10/04 11:59:17;;;;;;;13.07;11.77;;;;;;;17.42;76.46;101841.81;5074237;28;20900;-50
2022/10/04 12:02:30;;;;;;;12.60;11.50;;;;;;;17.38;77.14;101844.13;5073365;28;20528;-47
2022/10/04 12:05:22;;;;;;;12.73;11.47;;;;;;;17.29;76.86;101856.22;5073115;28;20458;-52
2022/10/04 12:08:04;;;;;;;12.13;11.40;;;;;;;17.61;75.46;101839.06;5073346;28;20915;-50
2022/10/04 12:10:36;;;;;;;13.93;12.97;;;;;;;17.49;75.75;101829.16;5073440;28;20437;-53